createdAt,value
2023-05-22T00:05:34.697Z,100.00
2023-05-22T00:15:38.542Z,100.00
2023-05-22T00:25:41.156Z,100.00
2023-05-22T00:35:42.812Z,100.00
2023-05-22T00:45:45.424Z,100.00
2023-05-22T00:55:48.043Z,100.00
2023-05-22T01:05:49.997Z,100.00
2023-05-22T01:16:05.932Z,100.00
2023-05-22T01:26:32.594Z,100.00
2023-05-22T01:36:36.531Z,100.00
2023-05-22T01:46:39.300Z,100.00
2023-05-22T01:57:16.944Z,100.00
2023-05-22T02:07:22.296Z,100.00
2023-05-22T02:17:26.327Z,100.00
2023-05-22T02:27:28.309Z,100.00
2023-05-22T02:37:38.155Z,100.00
2023-05-22T02:47:40.041Z,100.00
2023-05-22T02:57:41.802Z,100.00
2023-05-22T03:07:45.953Z,100.00
2023-05-22T03:17:49.297Z,100.00
2023-05-22T03:27:51.199Z,100.00
2023-05-22T03:37:53.916Z,100.00
2023-05-22T03:47:55.631Z,100.00
2023-05-22T03:57:58.397Z,100.00
2023-05-22T04:08:01.140Z,100.00
2023-05-22T04:18:03.044Z,100.00
2023-05-22T04:28:05.759Z,100.00
2023-05-22T04:38:13.204Z,100.00
2023-05-22T04:48:15.512Z,100.00
2023-05-22T04:58:17.218Z,100.00
2023-05-22T05:08:19.208Z,100.00
2023-05-22T05:18:21.372Z,100.00
2023-05-22T05:28:22.961Z,100.00
2023-05-22T05:38:27.009Z,100.00
2023-05-22T05:48:28.652Z,100.00
2023-05-22T05:58:32.405Z,100.00
2023-05-22T06:08:35.403Z,100.00
2023-05-22T06:18:37.814Z,98.95
2023-05-22T06:28:40.691Z,96.93
2023-05-22T06:38:42.428Z,91.43
2023-05-22T06:48:44.259Z,71.78
2023-05-22T06:58:48.763Z,55.37
2023-05-22T07:08:51.516Z,50.51
2023-05-22T07:18:53.447Z,53.99
2023-05-22T07:28:55.185Z,50.80
2023-05-22T07:38:56.921Z,52.53
2023-05-22T07:48:58.694Z,48.78
2023-05-22T07:59:01.576Z,45.54
2023-05-22T08:09:04.789Z,43.00
2023-05-22T08:19:08.132Z,43.54
2023-05-22T08:29:11.646Z,45.51
2023-05-22T08:39:14.490Z,45.00
2023-05-22T08:49:17.756Z,43.66
2023-05-22T08:59:22.101Z,43.88
2023-05-22T09:09:23.977Z,41.68
2023-05-22T09:19:28.958Z,39.29
2023-05-22T09:29:30.905Z,31.89
2023-05-22T09:39:47.628Z,31.30
2023-05-22T09:49:49.380Z,34.96
2023-05-22T09:59:58.695Z,29.54
2023-05-22T10:10:05.565Z,31.28
2023-05-22T10:20:09.257Z,33.53
2023-05-22T10:30:30.545Z,21.00
2023-05-22T10:40:36.204Z,19.36
2023-05-22T10:50:40.968Z,18.68
2023-05-22T11:00:43.475Z,19.10
2023-05-22T11:11:00.782Z,20.08
2023-05-22T11:21:04.928Z,20.54
2023-05-22T11:31:06.996Z,17.30
2023-05-22T11:41:10.517Z,18.14
2023-05-22T11:51:12.698Z,18.94
2023-05-22T12:01:14.734Z,16.19
2023-05-22T12:11:18.529Z,15.59
2023-05-22T12:21:22.090Z,17.10
2023-05-22T12:31:27.186Z,17.21
2023-05-22T12:41:30.690Z,16.51
2023-05-22T12:51:32.723Z,15.42
2023-05-22T13:01:35.913Z,15.25
2023-05-22T13:11:39.809Z,14.87
2023-05-22T13:21:43.144Z,17.48
2023-05-22T13:31:44.803Z,14.55
2023-05-22T13:41:46.579Z,19.77
2023-05-22T13:51:48.242Z,26.21
2023-05-22T14:01:50.629Z,27.21
2023-05-22T14:11:52.624Z,17.93
2023-05-22T14:21:54.348Z,18.89
2023-05-22T14:32:04.928Z,16.54
2023-05-22T14:42:06.921Z,19.24
2023-05-22T14:52:08.603Z,15.86
2023-05-22T15:02:10.401Z,15.50
2023-05-22T15:12:12.164Z,16.18
2023-05-22T15:22:19.246Z,15.26
2023-05-22T15:32:22.700Z,16.32
2023-05-22T15:42:26.261Z,16.74
2023-05-22T15:52:29.249Z,19.83
2023-05-22T16:02:31.163Z,17.50
2023-05-22T16:12:32.983Z,20.73
2023-05-22T16:22:47.367Z,28.41
2023-05-22T16:32:50.120Z,34.30
2023-05-22T16:42:51.868Z,35.65
2023-05-22T16:52:56.738Z,34.39
2023-05-22T17:02:58.756Z,38.28
2023-05-22T17:13:03.710Z,40.05
2023-05-22T17:23:07.368Z,42.96
2023-05-22T17:33:09.190Z,46.76
2023-05-22T17:43:12.302Z,78.99
2023-05-22T17:53:18.160Z,100.00
2023-05-22T18:03:21.194Z,100.00
2023-05-22T18:13:23.066Z,100.00
2023-05-22T18:23:25.227Z,100.00
2023-05-22T18:33:28.216Z,100.00
2023-05-22T18:43:30.004Z,100.00
2023-05-22T18:53:35.988Z,100.00
2023-05-22T19:03:37.742Z,100.00
2023-05-22T19:13:41.741Z,100.00
2023-05-22T19:23:43.481Z,100.00
2023-05-22T19:33:46.250Z,100.00
2023-05-22T19:43:48.451Z,100.00
2023-05-22T19:53:50.423Z,100.00
2023-05-22T20:03:52.435Z,100.00
2023-05-22T20:13:54.621Z,100.00
2023-05-22T20:23:56.735Z,100.00
2023-05-22T20:34:04.000Z,100.00
2023-05-22T20:44:06.626Z,100.00
2023-05-22T20:54:08.506Z,100.00
2023-05-22T21:04:10.063Z,100.00
2023-05-22T21:14:11.883Z,100.00
2023-05-22T21:24:13.894Z,100.00
2023-05-22T21:34:15.715Z,100.00
2023-05-22T21:44:18.482Z,100.00
2023-05-22T21:54:20.125Z,100.00
2023-05-22T22:04:21.768Z,100.00
2023-05-22T22:14:23.845Z,100.00
2023-05-22T22:24:26.267Z,100.00
2023-05-22T22:34:27.897Z,100.00
2023-05-22T22:44:30.688Z,100.00
2023-05-22T22:54:32.481Z,100.00
2023-05-22T23:04:34.518Z,100.00
2023-05-22T23:14:37.781Z,100.00
2023-05-22T23:24:39.502Z,100.00
2023-05-22T23:34:42.347Z,100.00
2023-05-22T23:44:44.238Z,100.00
2023-05-22T23:54:45.937Z,100.00
